Time;durP1;ratioP1;P1;durP2;ratioP2;P2;SDS_P1;SDS_P2;PMS_P1;PMS_P2;Temp;Humidity;BMP_temperature;BMP_pressure;BME280_temperature;BME280_humidity;BME280_pressure;Samples;Min_cycle;Max_cycle;Signal;HPM_P1;HPM_P2
2023/05/11 00:01:16;;;;;;;3.17;1.20;;;;;;;11.26;100.00;96519.59;5056416;28;20666;-61
2023/05/11 00:03:42;;;;;;;3.57;1.03;;;;;;;11.23;100.00;96510.13;5056599;28;20622;-61
2023/05/11 00:06:09;;;;;;;3.00;1.07;;;;;;;11.24;100.00;96509.16;5056119;28;20616;-61
2023/05/11 00:08:38;;;;;;;3.30;1.00;;;;;;;11.28;100.00;96507.03;5065374;28;20203;-61
2023/05/11 00:11:08;;;;;;;3.63;1.07;;;;;;;11.22;100.00;96503.19;5066676;28;20611;-60
2023/05/11 00:13:36;;;;;;;1.47;0.80;;;;;;;11.23;100.00;96498.72;5075129;28;20226;-61
2023/05/11 00:16:04;;;;;;;0.60;0.60;;;;;;;11.29;100.00;96500.75;5056384;28;20606;-62
2023/05/11 00:18:31;;;;;;;0.80;0.80;;;;;;;11.24;100.00;96505.66;5064930;28;20207;-62
2023/05/11 00:20:57;;;;;;;1.63;0.87;;;;;;;11.21;100.00;96500.66;5063320;28;20207;-62
2023/05/11 00:23:24;;;;;;;1.63;0.50;;;;;;;11.21;100.00;96498.03;5055473;28;20290;-61
2023/05/11 00:25:52;;;;;;;1.40;0.77;;;;;;;11.23;100.00;96496.88;5070031;28;20294;-61
2023/05/11 00:28:21;;;;;;;0.80;0.80;;;;;;;11.20;100.00;96494.53;5055525;28;20213;-62
2023/05/11 00:30:47;;;;;;;1.97;0.70;;;;;;;11.26;100.00;96498.41;5056019;28;20213;-61
2023/05/11 00:33:15;;;;;;;2.27;1.00;;;;;;;11.24;100.00;96492.44;5055974;28;20230;-61
2023/05/11 00:35:41;;;;;;;2.50;1.10;;;;;;;11.24;100.00;96490.63;5059847;28;20211;-62
2023/05/11 00:38:08;;;;;;;0.70;0.60;;;;;;;11.31;100.00;96490.84;5077756;28;20222;-61
2023/05/11 00:40:38;;;;;;;4.93;0.73;;;;;;;11.27;100.00;96487.66;5076718;28;20221;-64
2023/05/11 00:43:04;;;;;;;0.70;0.70;;;;;;;11.22;100.00;96487.31;5057839;28;20207;-61
2023/05/11 00:45:31;;;;;;;0.70;0.63;;;;;;;11.19;100.00;96492.06;5055996;28;20211;-62
2023/05/11 00:47:58;;;;;;;2.70;0.70;;;;;;;11.16;100.00;96487.06;5057189;28;20203;-61
2023/05/11 00:50:26;;;;;;;0.73;0.73;;;;;;;11.16;100.00;96487.06;5055631;28;20203;-61
2023/05/11 00:52:56;;;;;;;2.67;0.90;;;;;;;11.14;100.00;96484.56;5054400;28;20206;-61
2023/05/11 00:55:23;;;;;;;0.93;0.80;;;;;;;11.20;100.00;96488.41;5055596;28;20257;-62
2023/05/11 00:57:50;;;;;;;1.03;0.90;;;;;;;11.20;100.00;96488.41;5055004;28;20289;-62
2023/05/11 01:00:17;;;;;;;0.80;0.70;;;;;;;11.17;100.00;96489.56;5068907;28;20295;-60
2023/05/11 01:02:45;;;;;;;0.70;0.70;;;;;;;11.20;100.00;96477.81;5065913;28;20529;-61
2023/05/11 01:05:11;;;;;;;1.20;1.10;;;;;;;11.20;100.00;96485.78;5057896;28;20253;-61
2023/05/11 01:07:44;;;;;;;1.97;0.90;;;;;;;11.16;100.00;96489.72;5061261;28;20203;-60
2023/05/11 01:10:17;;;;;;;0.83;0.80;;;;;;;11.20;100.00;96485.78;5070968;28;20234;-61
2023/05/11 01:12:50;;;;;;;1.53;0.90;;;;;;;11.17;100.00;96484.25;5077491;28;20193;-61
2023/05/11 01:15:24;;;;;;;1.80;1.00;;;;;;;11.22;100.00;96489.13;5055800;28;20226;-61
2023/05/11 01:17:55;;;;;;;0.70;0.70;;;;;;;11.23;100.00;96482.84;5068180;28;20203;-62
2023/05/11 01:20:25;;;;;;;3.97;0.97;;;;;;;11.22;100.00;96486.47;5055282;28;20264;-62
2023/05/11 01:23:13;;;;;;;1.23;0.80;;;;;;;11.17;100.00;96491.38;5055999;28;20549;-62
2023/05/11 01:25:54;;;;;;;2.57;0.80;;;;;;;11.18;100.00;96487.75;5059565;28;20238;-62
2023/05/11 01:28:36;;;;;;;1.63;0.70;;;;;;;11.15;100.00;96491.53;5054144;28;20211;-62
2023/05/11 01:31:07;;;;;;;0.90;0.90;;;;;;;11.16;100.00;96487.06;5055191;28;21819;-62
2023/05/11 01:33:35;;;;;;;0.93;0.80;;;;;;;11.14;100.00;96491.66;5064834;28;20217;-62
2023/05/11 01:36:05;;;;;;;2.77;0.97;;;;;;;11.16;100.00;96487.06;5063984;28;20212;-61
2023/05/11 01:38:34;;;;;;;1.00;1.00;;;;;;;11.12;100.00;96485.72;5061364;28;20207;-61
2023/05/11 01:41:04;;;;;;;2.33;0.77;;;;;;;11.09;100.00;96491.31;5062120;28;20206;-62
2023/05/11 01:43:35;;;;;;;2.13;1.13;;;;;;;11.07;100.00;96485.31;5062308;28;20219;-62
2023/05/11 01:46:04;;;;;;;0.73;0.73;;;;;;;11.06;100.00;96486.28;5062119;28;20194;-61
2023/05/11 01:48:34;;;;;;;2.50;1.13;;;;;;;11.05;100.00;96487.28;5061643;28;20226;-61
2023/05/11 01:51:03;;;;;;;1.33;0.80;;;;;;;11.07;100.00;96485.31;5061282;28;20289;-61
2023/05/11 01:53:34;;;;;;;0.57;0.57;;;;;;;11.05;100.00;96487.28;5074471;28;20264;-61
2023/05/11 01:56:04;;;;;;;2.83;1.10;;;;;;;11.06;100.00;96486.28;5061584;28;20207;-60
2023/05/11 01:58:31;;;;;;;1.20;1.10;;;;;;;11.05;100.00;96479.34;5060331;28;20202;-60
2023/05/11 02:00:59;;;;;;;3.80;0.97;;;;;;;11.05;100.00;96482.84;5061664;28;20470;-61
2023/05/11 02:03:27;;;;;;;1.60;1.27;;;;;;;11.08;100.00;96481.69;5070431;28;20201;-61
2023/05/11 02:05:54;;;;;;;1.33;1.00;;;;;;;11.07;100.00;96482.66;5063488;28;20199;-61
2023/05/11 02:08:23;;;;;;;2.33;1.17;;;;;;;11.07;100.00;96474.72;5077880;28;20214;-62
2023/05/11 02:10:50;;;;;;;1.43;1.13;;;;;;;11.04;100.00;96482.97;5061536;28;20215;-61
2023/05/11 02:13:18;;;;;;;2.73;0.93;;;;;;;11.03;100.00;96482.13;5085164;28;20218;-61
2023/05/11 02:15:45;;;;;;;2.17;1.13;;;;;;;11.05;100.00;96479.34;5079483;28;20230;-60
2023/05/11 02:18:14;;;;;;;2.13;1.07;;;;;;;10.96;100.00;96479.25;5063782;28;20226;-60
2023/05/11 02:20:44;;;;;;;2.83;1.03;;;;;;;10.90;100.00;96474.56;5061440;28;20211;-62
2023/05/11 02:23:11;;;;;;;1.20;1.10;;;;;;;10.84;100.00;96474.34;5061019;28;20211;-61
2023/05/11 02:25:39;;;;;;;1.80;0.93;;;;;;;10.83;100.00;96470.84;5065225;28;20195;-60
2023/05/11 02:28:08;;;;;;;1.53;0.80;;;;;;;10.84;100.00;96467.22;5060896;28;20642;-60
2023/05/11 02:30:39;;;;;;;1.93;0.83;;;;;;;10.82;100.00;96473.63;5079499;28;20194;-61
2023/05/11 02:33:08;;;;;;;2.60;1.00;;;;;;;10.81;100.00;96471.97;5083069;28;20210;-60
2023/05/11 02:35:38;;;;;;;2.43;1.10;;;;;;;10.79;100.00;96464.19;5064880;28;20226;-60
2023/05/11 02:38:07;;;;;;;2.13;1.00;;;;;;;10.81;100.00;96469.31;5061301;28;20213;-60
2023/05/11 02:40:34;;;;;;;0.90;0.90;;;;;;;10.86;100.00;96467.91;5060633;28;20222;-60
2023/05/11 02:43:07;;;;;;;1.80;0.90;;;;;;;10.85;100.00;96460.94;5060404;28;20207;-60
2023/05/11 02:45:38;;;;;;;2.83;1.20;;;;;;;10.88;100.00;96467.75;5061063;28;20272;-61
2023/05/11 02:48:08;;;;;;;2.47;0.87;;;;;;;10.82;100.00;96461.25;5057430;28;20230;-60
2023/05/11 02:50:39;;;;;;;0.80;0.80;;;;;;;10.86;100.00;96462.63;5058607;28;20215;-60
2023/05/11 02:53:11;;;;;;;1.90;1.00;;;;;;;10.90;100.00;96466.63;5058810;28;20211;-61
2023/05/11 02:55:38;;;;;;;0.87;0.87;;;;;;;10.86;100.00;96457.31;5059319;28;20214;-62
2023/05/11 02:58:05;;;;;;;1.40;0.93;;;;;;;10.85;100.00;96457.47;5061006;28;20206;-60
2023/05/11 03:00:32;;;;;;;1.10;1.00;;;;;;;10.86;100.00;96462.63;5068320;28;20229;-61
2023/05/11 03:02:59;;;;;;;1.00;0.93;;;;;;;10.81;100.00;96462.22;5082714;28;20203;-61
2023/05/11 03:05:28;;;;;;;2.30;1.10;;;;;;;10.83;100.00;96460.28;5074167;28;20206;-59
2023/05/11 03:07:57;;;;;;;1.50;0.90;;;;;;;10.83;100.00;96459.44;5075587;28;20213;-60
2023/05/11 03:10:27;;;;;;;1.07;1.00;;;;;;;10.83;100.00;96457.63;5057499;28;20211;-61
2023/05/11 03:12:54;;;;;;;1.33;1.00;;;;;;;10.84;100.00;96455.81;5081981;28;20229;-61
2023/05/11 03:15:22;;;;;;;1.87;0.90;;;;;;;10.89;100.00;96459.66;5057193;28;20318;-61
2023/05/11 03:17:49;;;;;;;1.03;0.93;;;;;;;10.91;100.00;96455.03;5056176;28;20203;-60
2023/05/11 03:20:17;;;;;;;2.00;1.33;;;;;;;10.91;100.00;96452.41;5057530;28;20203;-61
2023/05/11 03:22:44;;;;;;;1.13;1.00;;;;;;;10.92;100.00;96454.06;5056159;28;20242;-59
2023/05/11 03:25:11;;;;;;;2.00;0.83;;;;;;;10.91;100.00;96457.69;5062126;28;20211;-61
2023/05/11 03:27:40;;;;;;;2.33;1.20;;;;;;;10.92;100.00;96446.13;5056557;28;20214;-60
2023/05/11 03:30:11;;;;;;;0.93;0.90;;;;;;;10.95;100.00;96450.28;5055795;28;20218;-61
2023/05/11 03:32:38;;;;;;;2.73;1.00;;;;;;;10.95;100.00;96447.66;5057123;28;20222;-60
2023/05/11 03:35:08;;;;;;;3.27;1.13;;;;;;;10.95;100.00;96448.47;5056429;28;20677;-60
2023/05/11 03:37:36;;;;;;;0.97;0.97;;;;;;;11.00;100.00;96445.41;5056656;28;20635;-60
2023/05/11 03:40:04;;;;;;;2.00;1.20;;;;;;;10.97;100.00;96451.81;5065505;28;20225;-60
2023/05/11 03:42:31;;;;;;;2.27;1.20;;;;;;;10.99;100.00;96444.56;5072036;28;20206;-60
2023/05/11 03:45:00;;;;;;;4.00;1.23;;;;;;;11.04;100.00;96449.41;5069340;28;20194;-61
2023/05/11 03:47:27;;;;;;;2.07;1.30;;;;;;;11.08;100.00;96452.59;5074461;28;20199;-60
2023/05/11 03:49:54;;;;;;;1.07;0.97;;;;;;;11.05;100.00;96443.13;5067203;28;20211;-61
2023/05/11 03:52:21;;;;;;;1.03;1.00;;;;;;;11.10;100.00;96445.31;5061074;28;20202;-60
2023/05/11 03:54:48;;;;;;;1.70;1.50;;;;;;;11.13;100.00;96439.72;5078376;28;20235;-60
2023/05/11 03:57:15;;;;;;;1.50;1.00;;;;;;;11.08;100.00;96434.06;5084805;28;20229;-62
2023/05/11 03:59:43;;;;;;;1.13;0.97;;;;;;;11.09;100.00;96438.38;5079673;28;20277;-61
2023/05/11 04:02:11;;;;;;;3.00;1.20;;;;;;;11.10;100.00;96435.56;5070112;28;20214;-61
2023/05/11 04:04:37;;;;;;;3.33;1.30;;;;;;;11.10;100.00;96440.03;5076406;28;20202;-61
2023/05/11 04:07:04;;;;;;;2.93;1.10;;;;;;;11.11;100.00;96434.59;5068373;28;20302;-60
2023/05/11 04:09:30;;;;;;;3.63;1.37;;;;;;;11.12;100.00;96438.06;5069471;28;20649;-60
2023/05/11 04:11:57;;;;;;;1.17;1.17;;;;;;;11.15;100.00;96443.06;5063047;28;20202;-61
2023/05/11 04:14:23;;;;;;;3.67;0.97;;;;;;;11.13;100.00;96445.00;5064252;28;20218;-61
2023/05/11 04:16:50;;;;;;;2.63;1.17;;;;;;;11.14;100.00;96441.38;5067090;28;20220;-60
2023/05/11 04:19:18;;;;;;;1.40;1.30;;;;;;;11.11;100.00;96442.53;5064583;28;20213;-60
2023/05/11 04:21:45;;;;;;;5.30;1.33;;;;;;;11.11;100.00;96437.22;5066402;28;20235;-61
2023/05/11 04:24:13;;;;;;;2.33;1.30;;;;;;;11.10;100.00;96440.84;5069246;28;20199;-61
2023/05/11 04:26:39;;;;;;;1.10;1.10;;;;;;;11.13;100.00;96442.34;5066898;28;20207;-61
2023/05/11 04:29:06;;;;;;;1.93;1.40;;;;;;;11.17;100.00;96435.78;5061785;28;20650;-64
2023/05/11 04:31:33;;;;;;;1.60;1.13;;;;;;;11.18;100.00;96434.81;5067476;28;20194;-61
2023/05/11 04:34:00;;;;;;;1.50;1.40;;;;;;;11.14;100.00;96430.81;5064371;28;20213;-60
2023/05/11 04:36:30;;;;;;;3.37;1.70;;;;;;;11.14;100.00;96436.09;5065785;28;20247;-61
2023/05/11 04:38:57;;;;;;;1.20;1.10;;;;;;;11.16;100.00;96445.53;5057998;28;20211;-60
2023/05/11 04:41:23;;;;;;;1.13;1.13;;;;;;;11.22;100.00;96438.81;5062437;28;20209;-60
2023/05/11 04:43:49;;;;;;;1.77;1.50;;;;;;;11.17;100.00;96431.31;5073435;28;20639;-61
2023/05/11 04:46:16;;;;;;;1.30;1.20;;;;;;;11.18;100.00;96429.53;5054878;28;20268;-61
2023/05/11 04:48:42;;;;;;;1.50;1.40;;;;;;;11.21;100.00;96437.97;5054327;28;20646;-60
2023/05/11 04:51:09;;;;;;;1.40;1.30;;;;;;;11.24;100.00;96437.69;5062864;28;20545;-60
2023/05/11 04:53:37;;;;;;;1.57;1.43;;;;;;;11.27;100.00;96436.53;5074389;28;20629;-59
2023/05/11 04:56:04;;;;;;;2.13;1.20;;;;;;;11.26;100.00;96441.03;5054834;28;20226;-61
2023/05/11 04:58:30;;;;;;;1.70;1.10;;;;;;;11.28;100.00;96438.22;5054946;28;20214;-66
2023/05/11 05:00:57;;;;;;;1.60;1.30;;;;;;;11.31;100.00;96445.84;5054620;28;20620;-59
2023/05/11 05:03:24;;;;;;;3.17;1.30;;;;;;;11.33;100.00;96443.88;5064331;28;20623;-58
2023/05/11 05:05:50;;;;;;;1.70;1.60;;;;;;;11.27;100.00;96445.31;5060628;28;20199;-59
2023/05/11 05:08:17;;;;;;;1.97;1.23;;;;;;;11.28;100.00;96444.34;5065462;28;20203;-60
2023/05/11 05:10:46;;;;;;;1.70;1.40;;;;;;;11.31;100.00;96446.69;5062325;28;20652;-60
2023/05/11 05:13:15;;;;;;;3.77;1.50;;;;;;;11.30;100.00;96447.66;5080082;28;20566;-59
2023/05/11 05:15:42;;;;;;;2.70;1.27;;;;;;;11.35;100.00;96444.56;5062892;28;20309;-60
2023/05/11 05:18:08;;;;;;;1.73;1.50;;;;;;;11.36;100.00;96447.06;5065297;28;20269;-60
2023/05/11 05:20:35;;;;;;;1.73;1.20;;;;;;;11.39;100.00;96440.63;5064123;28;20638;-59
2023/05/11 05:23:01;;;;;;;4.23;1.67;;;;;;;11.41;100.00;96451.88;5066036;28;20242;-60
2023/05/11 05:25:29;;;;;;;1.60;1.50;;;;;;;11.47;100.00;96443.34;5067903;28;20203;-58
2023/05/11 05:27:56;;;;;;;3.20;1.50;;;;;;;11.45;100.00;96438.19;5059777;28;20224;-59
2023/05/11 05:30:23;;;;;;;1.40;1.30;;;;;;;11.45;100.00;96451.44;5064054;28;20517;-59
2023/05/11 05:32:49;;;;;;;3.13;1.50;;;;;;;11.43;100.00;96447.28;5069484;28;20598;-58
2023/05/11 05:35:16;;;;;;;2.53;1.33;;;;;;;11.46;100.00;96452.25;5064227;28;20230;-59
2023/05/11 05:37:43;;;;;;;1.10;1.10;;;;;;;11.47;100.00;96454.78;5069280;28;20214;-59
2023/05/11 05:40:10;;;;;;;1.77;1.43;;;;;;;11.52;100.00;96450.81;5064269;28;20218;-59
2023/05/11 05:42:36;;;;;;;2.27;1.07;;;;;;;11.54;100.00;96452.34;5054705;28;20222;-59
2023/05/11 05:45:05;;;;;;;2.07;1.27;;;;;;;11.55;100.00;96451.34;5063680;28;20203;-59
2023/05/11 05:47:31;;;;;;;1.67;1.20;;;;;;;11.57;100.00;96449.38;5066762;28;20214;-59
2023/05/11 05:49:58;;;;;;;2.30;1.40;;;;;;;11.62;100.00;96451.56;5054009;28;20207;-60
2023/05/11 05:52:24;;;;;;;4.10;1.40;;;;;;;11.61;100.00;96453.38;5057147;28;20214;-59
2023/05/11 05:54:51;;;;;;;1.73;1.10;;;;;;;11.61;100.00;96450.75;5062592;28;20261;-59
2023/05/11 05:57:18;;;;;;;1.40;1.20;;;;;;;11.71;100.00;96451.50;5066992;28;20693;-59
2023/05/11 05:59:44;;;;;;;1.17;1.00;;;;;;;11.67;100.00;96439.53;5053416;28;20306;-63
2023/05/11 06:02:12;;;;;;;1.33;1.13;;;;;;;11.63;100.00;96454.06;5055616;28;20585;-59
2023/05/11 06:04:38;;;;;;;3.37;1.27;;;;;;;11.66;100.00;96437.84;5061475;28;20214;-58
2023/05/11 06:07:05;;;;;;;1.40;1.30;;;;;;;11.76;100.00;96449.22;5055412;28;20207;-59
2023/05/11 06:09:32;;;;;;;2.20;1.20;;;;;;;11.72;100.00;96453.19;5061205;28;20211;-58
2023/05/11 06:11:59;;;;;;;2.30;1.30;;;;;;;11.70;100.00;96452.44;5063507;28;20209;-58
2023/05/11 06:14:26;;;;;;;1.20;1.10;;;;;;;11.74;100.00;96451.19;5076700;28;20504;-59
2023/05/11 06:16:52;;;;;;;2.87;2.00;;;;;;;11.74;100.00;96453.00;5069272;28;20223;-61
2023/05/11 06:19:20;;;;;;;2.03;1.90;;;;;;;11.77;100.00;96453.53;5081057;28;20201;-58
2023/05/11 06:21:47;;;;;;;3.50;3.13;;;;;;;11.77;100.00;96450.88;5075521;28;20242;-58
2023/05/11 06:24:13;;;;;;;3.13;2.83;;;;;;;11.85;100.00;96461.53;5064624;28;20249;-59
2023/05/11 06:26:41;;;;;;;1.97;1.87;;;;;;;11.91;100.00;96452.97;5074730;28;20256;-58
2023/05/11 06:29:07;;;;;;;3.43;2.37;;;;;;;11.96;100.00;96448.03;5079060;28;20524;-59
2023/05/11 06:31:34;;;;;;;1.90;1.80;;;;;;;12.05;100.00;96453.38;5058103;28;20651;-59
2023/05/11 06:34:02;;;;;;;2.37;1.73;;;;;;;12.09;100.00;96450.25;5066353;28;20217;-59
2023/05/11 06:36:31;;;;;;;1.60;1.50;;;;;;;12.12;100.00;96449.94;5057355;28;20332;-59
2023/05/11 06:38:59;;;;;;;2.97;1.40;;;;;;;12.21;100.00;96449.00;5065726;28;20263;-58
2023/05/11 06:41:25;;;;;;;1.93;1.37;;;;;;;12.23;100.00;96451.47;5074181;28;20203;-59
2023/05/11 06:43:52;;;;;;;2.97;1.47;;;;;;;12.33;100.00;96441.59;5057107;28;20203;-59
2023/05/11 06:46:18;;;;;;;2.90;1.70;;;;;;;12.28;100.00;96438.59;5060405;28;20202;-58
2023/05/11 06:48:45;;;;;;;1.83;1.70;;;;;;;12.38;100.00;96444.59;5073813;28;20241;-58
2023/05/11 06:51:11;;;;;;;2.07;1.67;;;;;;;12.47;100.00;96439.16;5056375;28;20226;-59
2023/05/11 06:53:39;;;;;;;2.43;1.70;;;;;;;12.45;100.00;96440.31;5056337;28;20280;-58
2023/05/11 06:56:07;;;;;;;3.33;1.80;;;;;;;12.50;100.00;96438.03;5056735;28;20254;-58
2023/05/11 06:58:34;;;;;;;4.70;2.37;;;;;;;12.45;100.00;96435.03;5056668;28;20272;-58
2023/05/11 07:01:04;;;;;;;3.47;1.97;;;;;;;12.59;100.00;96434.41;5057655;28;20217;-59
2023/05/11 07:03:31;;;;;;;3.33;1.90;;;;;;;12.75;100.00;96431.00;5057217;28;20329;-58
2023/05/11 07:05:57;;;;;;;3.33;1.60;;;;;;;12.78;100.00;96431.50;5057241;28;20207;-57
2023/05/11 07:08:23;;;;;;;3.13;1.67;;;;;;;12.90;100.00;96439.97;5065981;28;20261;-59
2023/05/11 07:10:51;;;;;;;4.97;2.30;;;;;;;13.02;100.00;96433.38;5056941;28;20214;-59
2023/05/11 07:13:18;;;;;;;2.10;1.70;;;;;;;13.05;100.00;96441.00;5055992;28;20211;-58
2023/05/11 07:15:44;;;;;;;1.93;1.60;;;;;;;13.18;100.00;96440.59;5056435;28;20709;-58
2023/05/11 07:18:11;;;;;;;3.30;1.77;;;;;;;13.21;100.00;96440.25;5059424;28;20230;-59
2023/05/11 07:20:39;;;;;;;2.63;1.70;;;;;;;13.24;100.00;96439.91;5056376;28;20203;-59
2023/05/11 07:23:06;;;;;;;1.73;1.63;;;;;;;13.21;100.00;96438.44;5056054;28;20231;-59
2023/05/11 07:25:33;;;;;;;1.70;1.60;;;;;;;13.17;100.00;96441.56;5060861;28;20199;-58
2023/05/11 07:28:02;;;;;;;2.33;1.80;;;;;;;13.34;100.00;96443.25;5056113;28;20206;-59
2023/05/11 07:30:28;;;;;;;2.17;1.87;;;;;;;13.29;100.00;96442.88;5056628;28;20225;-58
2023/05/11 07:32:55;;;;;;;2.63;2.40;;;;;;;13.42;100.00;96448.56;5056205;28;20224;-59
2023/05/11 07:35:22;;;;;;;1.63;1.53;;;;;;;13.56;100.00;96453.22;5056310;28;20218;-59
2023/05/11 07:37:50;;;;;;;1.67;1.30;;;;;;;13.70;100.00;96455.22;5056870;28;20207;-59
2023/05/11 07:40:17;;;;;;;1.50;1.20;;;;;;;13.81;100.00;96444.25;5056807;28;20211;-59
2023/05/11 07:42:43;;;;;;;2.13;1.60;;;;;;;13.96;100.00;96439.88;5055792;28;20666;-59
2023/05/11 07:45:12;;;;;;;2.40;1.47;;;;;;;14.13;100.00;96443.34;5056447;28;20219;-58
2023/05/11 07:47:38;;;;;;;2.10;1.43;;;;;;;14.19;100.00;96432.03;5056185;28;20208;-59
2023/05/11 07:50:06;;;;;;;2.53;1.53;;;;;;;14.21;100.00;96438.00;5056261;28;20214;-59
2023/05/11 07:52:33;;;;;;;2.33;1.80;;;;;;;14.25;100.00;96433.16;5056045;28;20207;-58
2023/05/11 07:54:59;;;;;;;1.60;1.50;;;;;;;14.20;100.00;96441.69;5056167;28;20295;-58
2023/05/11 07:57:26;;;;;;;1.53;1.40;;;;;;;13.98;100.00;96441.56;5055973;28;20679;-59
2023/05/11 07:59:52;;;;;;;1.53;1.23;;;;;;;13.85;100.00;96442.88;5055786;28;20596;-58
2023/05/11 08:02:22;;;;;;;2.33;1.50;;;;;;;13.76;100.00;96443.91;5056032;28;20213;-59
2023/05/11 08:04:48;;;;;;;2.97;1.87;;;;;;;13.54;100.00;96439.25;5055702;28;20269;-58
2023/05/11 08:07:16;;;;;;;3.77;1.63;;;;;;;13.36;100.00;96438.59;5058853;28;20229;-58
2023/05/11 08:09:43;;;;;;;2.13;1.60;;;;;;;13.21;100.00;96437.59;5075190;28;20221;-59
2023/05/11 08:12:11;;;;;;;4.60;1.63;;;;;;;13.09;100.00;96433.53;5063661;28;20504;-58
2023/05/11 08:14:37;;;;;;;1.53;1.40;;;;;;;13.17;100.00;96433.59;5074607;28;20206;-59
2023/05/11 08:17:04;;;;;;;2.20;1.77;;;;;;;13.14;100.00;96436.59;5055770;28;20262;-59
2023/05/11 08:19:32;;;;;;;2.30;2.10;;;;;;;13.02;100.00;96432.53;5058401;28;20302;-59
2023/05/11 08:22:00;;;;;;;1.90;1.80;;;;;;;13.05;100.00;96426.91;5055000;28;20253;-59
2023/05/11 08:24:26;;;;;;;2.67;1.93;;;;;;;13.13;100.00;96421.66;5059946;28;20210;-59
2023/05/11 08:26:53;;;;;;;1.77;1.63;;;;;;;13.33;100.00;96423.81;5055783;28;20277;-59
2023/05/11 08:29:20;;;;;;;2.40;1.83;;;;;;;13.38;100.00;96424.16;5055033;28;20218;-59
2023/05/11 08:31:46;;;;;;;2.13;1.60;;;;;;;13.46;100.00;96426.00;5055555;28;20222;-58
2023/05/11 08:34:13;;;;;;;1.63;1.53;;;;;;;13.43;100.00;96429.78;5055619;28;20218;-59
2023/05/11 08:36:42;;;;;;;1.97;1.70;;;;;;;13.51;100.00;96423.66;5055712;28;20698;-59
2023/05/11 08:39:09;;;;;;;2.87;2.43;;;;;;;13.71;100.00;96422.31;5073969;28;20203;-59
2023/05/11 08:41:35;;;;;;;2.37;2.17;;;;;;;13.86;100.00;96415.31;5060479;28;20210;-59
2023/05/11 08:44:02;;;;;;;2.33;2.13;;;;;;;13.91;100.00;96414.81;5061710;28;20628;-58
2023/05/11 08:46:30;;;;;;;2.97;2.40;;;;;;;14.16;100.00;96415.59;5058258;28;20206;-59
2023/05/11 08:48:58;;;;;;;2.50;2.30;;;;;;;14.45;100.00;96423.84;5055931;28;20301;-59
2023/05/11 08:51:25;;;;;;;4.90;2.60;;;;;;;14.73;100.00;96414.41;5055890;28;20211;-58
2023/05/11 08:53:52;;;;;;;2.50;2.37;;;;;;;14.91;100.00;96424.78;5055370;28;20207;-58
2023/05/11 08:56:20;;;;;;;4.33;3.63;;;;;;;15.29;100.00;96415.88;5064611;28;20222;-59
2023/05/11 08:58:50;;;;;;;11.40;9.00;;;;;;;15.96;95.38;96409.84;5070037;28;20586;-58
2023/05/11 09:01:17;;;;;;;3.38;2.50;;;;;;;16.49;96.86;96404.25;5055244;28;20203;-58
2023/05/11 09:03:45;;;;;;;2.60;2.35;;;;;;;17.18;97.32;96397.47;5054834;28;20563;-59
2023/05/11 09:06:12;;;;;;;3.78;2.47;;;;;;;17.30;91.67;96395.97;5054838;28;20285;-59
2023/05/11 09:08:39;;;;;;;2.00;1.80;;;;;;;17.82;79.31;96395.63;5063055;28;20203;-58
2023/05/11 09:11:08;;;;;;;2.20;2.00;;;;;;;17.65;80.27;96388.91;5054581;28;20202;-59
2023/05/11 09:13:35;;;;;;;2.33;1.73;;;;;;;17.28;77.92;96384.66;5053864;28;20245;-59
2023/05/11 09:16:01;;;;;;;2.00;1.70;;;;;;;17.84;80.22;96382.91;5054737;28;20231;-58
2023/05/11 09:18:28;;;;;;;2.10;1.88;;;;;;;18.03;75.83;96380.56;5056475;28;20203;-59
2023/05/11 09:20:56;;;;;;;1.95;1.67;;;;;;;18.45;77.42;96380.41;5054713;28;20214;-59
2023/05/11 09:23:25;;;;;;;2.08;1.88;;;;;;;18.95;80.13;96381.06;5054903;28;20210;-59
2023/05/11 09:25:51;;;;;;;3.15;1.95;;;;;;;19.11;73.67;96375.31;5058417;28;20512;-59
2023/05/11 09:28:23;;;;;;;1.65;1.55;;;;;;;18.91;74.03;96385.16;5054415;28;20298;-59
2023/05/11 09:30:49;;;;;;;2.05;1.85;;;;;;;18.67;76.10;96373.94;5054606;28;20199;-58
2023/05/11 09:33:22;;;;;;;2.13;2.03;;;;;;;18.50;77.36;96367.25;5054422;28;20214;-59
2023/05/11 09:35:48;;;;;;;2.28;2.08;;;;;;;18.32;78.29;96366.94;5054244;28;20562;-60
2023/05/11 09:38:18;;;;;;;2.92;2.30;;;;;;;18.13;75.05;96360.47;5055882;28;20273;-59
2023/05/11 09:40:50;;;;;;;2.60;2.13;;;;;;;17.39;75.40;96364.59;5054374;28;20221;-59
2023/05/11 09:43:20;;;;;;;2.60;2.40;;;;;;;17.03;78.43;96362.00;5053934;28;20195;-60
2023/05/11 09:45:49;;;;;;;2.05;1.88;;;;;;;16.61;79.19;96367.25;5054349;28;20222;-59
2023/05/11 09:48:30;;;;;;;3.65;2.40;;;;;;;16.66;78.33;96365.69;5054170;28;20651;-59
2023/05/11 09:51:02;;;;;;;2.00;1.90;;;;;;;17.00;79.31;96356.19;5054356;28;20552;-59
2023/05/11 09:53:37;;;;;;;2.15;2.05;;;;;;;17.44;80.33;96356.81;5053904;28;20546;-59
2023/05/11 09:56:04;;;;;;;3.08;1.60;;;;;;;17.68;80.73;96361.78;5055031;28;20246;-59
2023/05/11 09:58:45;;;;;;;1.98;1.55;;;;;;;17.90;73.07;96359.88;5057914;28;20264;-59
2023/05/11 10:01:13;;;;;;;1.98;1.80;;;;;;;17.78;77.64;96351.56;5058298;28;20203;-59
2023/05/11 10:03:49;;;;;;;1.83;1.50;;;;;;;18.14;75.30;96350.59;5057796;28;20234;-59
2023/05/11 10:06:15;;;;;;;1.77;1.30;;;;;;;18.27;74.49;96350.66;5057944;28;20256;-59
2023/05/11 10:08:42;;;;;;;1.42;1.33;;;;;;;18.52;70.46;96354.53;5066828;28;20203;-60
2023/05/11 10:11:08;;;;;;;2.15;1.50;;;;;;;18.55;72.53;96351.44;5058021;28;20211;-59
2023/05/11 10:13:36;;;;;;;1.98;1.27;;;;;;;18.99;67.97;96345.59;5057200;28;20694;-58
2023/05/11 10:16:04;;;;;;;1.42;1.33;;;;;;;19.10;65.80;96341.50;5058070;28;20218;-59
2023/05/11 10:18:32;;;;;;;1.42;1.27;;;;;;;19.52;70.02;96343.84;5059923;28;20238;-59
2023/05/11 10:20:59;;;;;;;1.00;1.00;;;;;;;19.52;65.50;96343.84;5057740;28;20238;-59
2023/05/11 10:23:26;;;;;;;1.80;1.30;;;;;;;19.15;63.07;96347.94;5057639;28;20207;-60
2023/05/11 10:25:53;;;;;;;1.42;0.90;;;;;;;19.09;66.02;96345.22;5061621;28;20214;-59
2023/05/11 10:28:21;;;;;;;0.85;0.85;;;;;;;18.78;66.91;96335.88;5057864;28;20640;-59
2023/05/11 10:30:47;;;;;;;2.88;1.30;;;;;;;18.59;66.23;96336.63;5057345;28;20594;-59
2023/05/11 10:33:14;;;;;;;2.03;1.00;;;;;;;18.16;64.11;96327.13;5057641;28;20214;-59
2023/05/11 10:35:42;;;;;;;0.88;0.73;;;;;;;17.74;68.95;96334.28;5057695;28;20222;-60
2023/05/11 10:38:09;;;;;;;1.35;1.25;;;;;;;17.71;70.88;96331.16;5057620;28;20601;-59
2023/05/11 10:40:37;;;;;;;1.25;1.15;;;;;;;17.46;74.14;96336.09;5056976;28;20214;-59
2023/05/11 10:43:18;;;;;;;1.88;1.40;;;;;;;17.04;74.05;96342.25;5057049;28;20199;-59
2023/05/11 10:45:49;;;;;;;1.70;1.08;;;;;;;16.59;79.43;96351.41;5060220;28;20210;-59
2023/05/11 10:48:31;;;;;;;0.93;0.90;;;;;;;16.24;84.25;96346.84;5077266;28;20207;-59
2023/05/11 10:51:13;;;;;;;0.98;0.98;;;;;;;15.50;89.01;96351.28;5057852;28;20214;-58
2023/05/11 10:53:54;;;;;;;3.85;1.23;;;;;;;15.28;91.11;96352.09;5057269;28;20211;-59
2023/05/11 10:56:37;;;;;;;1.20;0.70;;;;;;;14.69;87.99;96361.69;5058092;28;20547;-59
2023/05/11 10:59:19;;;;;;;1.45;1.10;;;;;;;14.05;92.79;96357.44;5071375;28;20207;-58
2023/05/11 11:01:46;;;;;;;1.17;0.50;;;;;;;13.80;97.98;96359.34;5085745;28;20199;-58
2023/05/11 11:04:13;;;;;;;1.00;0.70;;;;;;;13.56;94.39;96360.22;5088502;28;20207;-58
2023/05/11 11:06:43;;;;;;;0.73;0.73;;;;;;;13.24;100.00;96355.78;5084852;28;20213;-58
2023/05/11 11:09:12;;;;;;;1.33;0.60;;;;;;;13.19;96.83;96354.59;5067547;28;20203;-58
2023/05/11 11:11:41;;;;;;;1.50;0.70;;;;;;;13.04;99.07;96358.91;5057518;28;20265;-57
2023/05/11 11:14:09;;;;;;;1.90;0.73;;;;;;;12.82;100.00;96357.72;5057018;28;20714;-58
2023/05/11 11:16:35;;;;;;;2.43;0.87;;;;;;;12.76;100.00;96359.19;5056677;28;20673;-58
2023/05/11 11:19:36;;;;;;;0.77;0.60;;;;;;;12.71;100.00;96356.19;5057168;28;20221;-59
2023/05/11 11:22:05;;;;;;;0.83;0.60;;;;;;;12.61;100.00;96355.50;5059954;28;20239;-58
2023/05/11 11:24:47;;;;;;;1.07;0.83;;;;;;;12.74;100.00;96360.34;5061945;28;20202;-59
2023/05/11 11:27:14;;;;;;;2.40;2.20;;;;;;;12.56;100.00;96352.50;5057185;28;20227;-58
2023/05/11 11:29:41;;;;;;;2.30;1.17;;;;;;;12.53;100.00;96357.31;5056927;28;20222;-58
2023/05/11 11:32:30;;;;;;;3.40;0.83;;;;;;;12.56;100.00;96357.81;5058613;28;20529;-59